sensor_id;sensor_type;location;lat;lon;timestamp;P1;durP1;ratioP1;P2;durP2;ratioP2
52868;SDS011;39100;53.480;6.158;2023-08-06T00:02:12;1.10;;;0.90;;
52868;SDS011;39100;53.480;6.158;2023-08-06T00:04:38;0.98;;;0.88;;
52868;SDS011;39100;53.480;6.158;2023-08-06T00:07:04;0.75;;;0.60;;
52868;SDS011;39100;53.480;6.158;2023-08-06T00:09:29;1.98;;;0.70;;
52868;SDS011;39100;53.480;6.158;2023-08-06T00:11:55;2.03;;;0.73;;
52868;SDS011;39100;53.480;6.158;2023-08-06T00:14:20;0.55;;;0.43;;
52868;SDS011;39100;53.480;6.158;2023-08-06T00:16:46;1.25;;;1.08;;
52868;SDS011;39100;53.480;6.158;2023-08-06T00:19:12;0.82;;;0.82;;
52868;SDS011;39100;53.480;6.158;2023-08-06T00:21:37;1.30;;;1.00;;
52868;SDS011;39100;53.480;6.158;2023-08-06T00:24:03;0.82;;;0.75;;
52868;SDS011;39100;53.480;6.158;2023-08-06T00:26:28;0.85;;;0.70;;
52868;SDS011;39100;53.480;6.158;2023-08-06T00:28:54;0.60;;;0.60;;
52868;SDS011;39100;53.480;6.158;2023-08-06T00:31:19;1.35;;;0.93;;
52868;SDS011;39100;53.480;6.158;2023-08-06T00:33:45;0.95;;;0.68;;
52868;SDS011;39100;53.480;6.158;2023-08-06T00:36:11;1.30;;;0.77;;
52868;SDS011;39100;53.480;6.158;2023-08-06T00:38:36;1.13;;;0.80;;
52868;SDS011;39100;53.480;6.158;2023-08-06T00:41:02;1.25;;;0.85;;
52868;SDS011;39100;53.480;6.158;2023-08-06T00:43:27;1.60;;;0.75;;
52868;SDS011;39100;53.480;6.158;2023-08-06T00:45:53;0.80;;;0.43;;
52868;SDS011;39100;53.480;6.158;2023-08-06T00:48:19;0.60;;;0.60;;
52868;SDS011;39100;53.480;6.158;2023-08-06T00:50:45;0.90;;;0.60;;
52868;SDS011;39100;53.480;6.158;2023-08-06T00:53:11;0.60;;;0.40;;
52868;SDS011;39100;53.480;6.158;2023-08-06T00:55:37;0.95;;;0.52;;
52868;SDS011;39100;53.480;6.158;2023-08-06T00:58:03;2.28;;;0.63;;
52868;SDS011;39100;53.480;6.158;2023-08-06T01:00:29;0.75;;;0.60;;
52868;SDS011;39100;53.480;6.158;2023-08-06T01:02:55;0.50;;;0.50;;
52868;SDS011;39100;53.480;6.158;2023-08-06T01:05:21;0.88;;;0.85;;
52868;SDS011;39100;53.480;6.158;2023-08-06T01:10:35;0.63;;;0.60;;
52868;SDS011;39100;53.480;6.158;2023-08-06T01:15:56;0.60;;;0.57;;
52868;SDS011;39100;53.480;6.158;2023-08-06T01:18:24;0.47;;;0.40;;
52868;SDS011;39100;53.480;6.158;2023-08-06T01:20:50;0.60;;;0.50;;
52868;SDS011;39100;53.480;6.158;2023-08-06T01:23:16;0.32;;;0.32;;
52868;SDS011;39100;53.480;6.158;2023-08-06T01:25:46;1.10;;;0.35;;
52868;SDS011;39100;53.480;6.158;2023-08-06T01:28:16;0.85;;;0.57;;
52868;SDS011;39100;53.480;6.158;2023-08-06T01:30:58;1.02;;;0.60;;
52868;SDS011;39100;53.480;6.158;2023-08-06T01:33:26;0.45;;;0.43;;
52868;SDS011;39100;53.480;6.158;2023-08-06T01:35:53;0.40;;;0.40;;
52868;SDS011;39100;53.480;6.158;2023-08-06T01:38:20;0.88;;;0.50;;
52868;SDS011;39100;53.480;6.158;2023-08-06T01:40:46;0.60;;;0.50;;
52868;SDS011;39100;53.480;6.158;2023-08-06T01:43:12;0.45;;;0.45;;
52868;SDS011;39100;53.480;6.158;2023-08-06T01:45:37;0.85;;;0.63;;
52868;SDS011;39100;53.480;6.158;2023-08-06T01:48:03;0.85;;;0.50;;
52868;SDS011;39100;53.480;6.158;2023-08-06T01:50:28;0.63;;;0.57;;
52868;SDS011;39100;53.480;6.158;2023-08-06T01:52:54;0.63;;;0.50;;
52868;SDS011;39100;53.480;6.158;2023-08-06T01:55:19;0.63;;;0.55;;
52868;SDS011;39100;53.480;6.158;2023-08-06T01:57:45;0.60;;;0.43;;
52868;SDS011;39100;53.480;6.158;2023-08-06T02:00:11;0.85;;;0.55;;
52868;SDS011;39100;53.480;6.158;2023-08-06T02:02:37;1.50;;;0.80;;
52868;SDS011;39100;53.480;6.158;2023-08-06T02:05:02;1.00;;;0.80;;
52868;SDS011;39100;53.480;6.158;2023-08-06T02:07:29;1.27;;;0.88;;
52868;SDS011;39100;53.480;6.158;2023-08-06T02:09:54;1.75;;;1.00;;
52868;SDS011;39100;53.480;6.158;2023-08-06T02:12:20;0.80;;;0.68;;
52868;SDS011;39100;53.480;6.158;2023-08-06T02:14:45;1.45;;;0.70;;
52868;SDS011;39100;53.480;6.158;2023-08-06T02:17:11;1.02;;;0.70;;
52868;SDS011;39100;53.480;6.158;2023-08-06T02:19:36;0.65;;;0.60;;
52868;SDS011;39100;53.480;6.158;2023-08-06T02:22:02;0.55;;;0.50;;
52868;SDS011;39100;53.480;6.158;2023-08-06T02:24:27;0.82;;;0.65;;
52868;SDS011;39100;53.480;6.158;2023-08-06T02:26:53;1.65;;;0.52;;
52868;SDS011;39100;53.480;6.158;2023-08-06T02:29:20;0.95;;;0.75;;
52868;SDS011;39100;53.480;6.158;2023-08-06T02:31:46;0.80;;;0.80;;
52868;SDS011;39100;53.480;6.158;2023-08-06T02:34:11;1.00;;;0.77;;
52868;SDS011;39100;53.480;6.158;2023-08-06T02:36:37;1.27;;;0.82;;
52868;SDS011;39100;53.480;6.158;2023-08-06T02:39:03;1.08;;;0.65;;
52868;SDS011;39100;53.480;6.158;2023-08-06T02:41:28;0.65;;;0.60;;
52868;SDS011;39100;53.480;6.158;2023-08-06T02:43:54;0.88;;;0.65;;
52868;SDS011;39100;53.480;6.158;2023-08-06T02:46:19;1.15;;;0.75;;
52868;SDS011;39100;53.480;6.158;2023-08-06T02:48:45;1.73;;;0.68;;
52868;SDS011;39100;53.480;6.158;2023-08-06T02:51:10;0.47;;;0.45;;
52868;SDS011;39100;53.480;6.158;2023-08-06T02:53:36;1.05;;;0.70;;
52868;SDS011;39100;53.480;6.158;2023-08-06T02:56:02;0.93;;;0.80;;
52868;SDS011;39100;53.480;6.158;2023-08-06T02:58:27;1.20;;;0.70;;
52868;SDS011;39100;53.480;6.158;2023-08-06T03:00:59;1.42;;;0.85;;
52868;SDS011;39100;53.480;6.158;2023-08-06T03:03:27;1.15;;;1.00;;
52868;SDS011;39100;53.480;6.158;2023-08-06T03:05:53;1.25;;;0.93;;
52868;SDS011;39100;53.480;6.158;2023-08-06T03:08:19;1.20;;;0.60;;
52868;SDS011;39100;53.480;6.158;2023-08-06T03:10:47;0.95;;;0.77;;
52868;SDS011;39100;53.480;6.158;2023-08-06T03:13:13;1.60;;;1.00;;
52868;SDS011;39100;53.480;6.158;2023-08-06T03:15:39;1.05;;;0.75;;
52868;SDS011;39100;53.480;6.158;2023-08-06T03:18:04;0.85;;;0.80;;
52868;SDS011;39100;53.480;6.158;2023-08-06T03:20:31;1.83;;;1.30;;
52868;SDS011;39100;53.480;6.158;2023-08-06T03:22:57;1.33;;;1.20;;
52868;SDS011;39100;53.480;6.158;2023-08-06T03:25:23;1.85;;;1.35;;
52868;SDS011;39100;53.480;6.158;2023-08-06T03:27:48;1.75;;;1.15;;
52868;SDS011;39100;53.480;6.158;2023-08-06T03:30:14;1.15;;;0.90;;
52868;SDS011;39100;53.480;6.158;2023-08-06T03:32:39;1.58;;;1.10;;
52868;SDS011;39100;53.480;6.158;2023-08-06T03:35:05;1.35;;;1.10;;
52868;SDS011;39100;53.480;6.158;2023-08-06T03:37:31;1.05;;;0.95;;
52868;SDS011;39100;53.480;6.158;2023-08-06T03:39:56;1.15;;;0.80;;
52868;SDS011;39100;53.480;6.158;2023-08-06T03:42:22;1.15;;;0.93;;
52868;SDS011;39100;53.480;6.158;2023-08-06T03:44:48;1.70;;;1.08;;
52868;SDS011;39100;53.480;6.158;2023-08-06T03:47:13;1.00;;;0.88;;
52868;SDS011;39100;53.480;6.158;2023-08-06T03:49:39;2.05;;;1.10;;
52868;SDS011;39100;53.480;6.158;2023-08-06T03:52:05;1.17;;;0.90;;
52868;SDS011;39100;53.480;6.158;2023-08-06T03:54:31;1.10;;;1.00;;
52868;SDS011;39100;53.480;6.158;2023-08-06T03:56:56;1.13;;;1.00;;
52868;SDS011;39100;53.480;6.158;2023-08-06T03:59:22;1.15;;;1.00;;
52868;SDS011;39100;53.480;6.158;2023-08-06T04:01:47;1.27;;;1.10;;
52868;SDS011;39100;53.480;6.158;2023-08-06T04:04:13;2.58;;;1.13;;
52868;SDS011;39100;53.480;6.158;2023-08-06T04:06:38;1.20;;;1.10;;
52868;SDS011;39100;53.480;6.158;2023-08-06T04:09:04;3.10;;;1.08;;
52868;SDS011;39100;53.480;6.158;2023-08-06T04:11:29;1.38;;;1.10;;
52868;SDS011;39100;53.480;6.158;2023-08-06T04:13:55;1.88;;;1.05;;
52868;SDS011;39100;53.480;6.158;2023-08-06T04:16:21;1.38;;;1.10;;
52868;SDS011;39100;53.480;6.158;2023-08-06T04:18:46;1.58;;;1.33;;
52868;SDS011;39100;53.480;6.158;2023-08-06T04:21:12;1.33;;;1.23;;
52868;SDS011;39100;53.480;6.158;2023-08-06T04:23:37;1.23;;;1.10;;
52868;SDS011;39100;53.480;6.158;2023-08-06T04:26:03;2.60;;;1.30;;
52868;SDS011;39100;53.480;6.158;2023-08-06T04:28:29;1.40;;;1.30;;
52868;SDS011;39100;53.480;6.158;2023-08-06T04:30:55;1.30;;;1.15;;
52868;SDS011;39100;53.480;6.158;2023-08-06T04:33:20;1.20;;;0.95;;
52868;SDS011;39100;53.480;6.158;2023-08-06T04:35:46;1.60;;;1.23;;
52868;SDS011;39100;53.480;6.158;2023-08-06T04:38:12;1.15;;;0.90;;
52868;SDS011;39100;53.480;6.158;2023-08-06T04:40:37;1.08;;;0.95;;
52868;SDS011;39100;53.480;6.158;2023-08-06T04:43:03;1.27;;;1.13;;
52868;SDS011;39100;53.480;6.158;2023-08-06T04:45:28;1.38;;;1.15;;
52868;SDS011;39100;53.480;6.158;2023-08-06T04:47:54;0.88;;;0.73;;
52868;SDS011;39100;53.480;6.158;2023-08-06T04:50:20;1.23;;;1.13;;
52868;SDS011;39100;53.480;6.158;2023-08-06T04:52:45;1.55;;;0.95;;
52868;SDS011;39100;53.480;6.158;2023-08-06T04:55:11;2.35;;;1.40;;
52868;SDS011;39100;53.480;6.158;2023-08-06T04:57:36;1.52;;;1.00;;
52868;SDS011;39100;53.480;6.158;2023-08-06T05:00:02;1.95;;;1.00;;
52868;SDS011;39100;53.480;6.158;2023-08-06T05:02:29;0.70;;;0.70;;
52868;SDS011;39100;53.480;6.158;2023-08-06T05:04:57;0.90;;;0.88;;
52868;SDS011;39100;53.480;6.158;2023-08-06T05:07:23;2.58;;;0.95;;
52868;SDS011;39100;53.480;6.158;2023-08-06T05:09:48;1.00;;;0.70;;
52868;SDS011;39100;53.480;6.158;2023-08-06T05:12:14;1.27;;;0.80;;
52868;SDS011;39100;53.480;6.158;2023-08-06T05:14:40;0.60;;;0.60;;
52868;SDS011;39100;53.480;6.158;2023-08-06T05:17:05;1.05;;;0.80;;
52868;SDS011;39100;53.480;6.158;2023-08-06T05:19:31;0.90;;;0.80;;
52868;SDS011;39100;53.480;6.158;2023-08-06T05:21:56;0.77;;;0.63;;
52868;SDS011;39100;53.480;6.158;2023-08-06T05:24:22;1.05;;;0.82;;
52868;SDS011;39100;53.480;6.158;2023-08-06T05:26:47;0.85;;;0.75;;
52868;SDS011;39100;53.480;6.158;2023-08-06T05:29:13;1.55;;;0.75;;
52868;SDS011;39100;53.480;6.158;2023-08-06T05:31:41;1.17;;;0.85;;
52868;SDS011;39100;53.480;6.158;2023-08-06T05:34:07;1.10;;;0.88;;
52868;SDS011;39100;53.480;6.158;2023-08-06T05:36:32;1.00;;;0.70;;
52868;SDS011;39100;53.480;6.158;2023-08-06T05:38:58;2.50;;;1.50;;
52868;SDS011;39100;53.480;6.158;2023-08-06T05:41:24;0.95;;;0.77;;
52868;SDS011;39100;53.480;6.158;2023-08-06T05:43:49;2.55;;;0.98;;
52868;SDS011;39100;53.480;6.158;2023-08-06T05:46:15;1.65;;;1.38;;
52868;SDS011;39100;53.480;6.158;2023-08-06T05:48:40;1.48;;;1.15;;
52868;SDS011;39100;53.480;6.158;2023-08-06T05:51:06;1.05;;;0.85;;
52868;SDS011;39100;53.480;6.158;2023-08-06T05:53:32;1.02;;;0.88;;
52868;SDS011;39100;53.480;6.158;2023-08-06T05:55:58;0.60;;;0.50;;
52868;SDS011;39100;53.480;6.158;2023-08-06T05:58:23;0.60;;;0.55;;
52868;SDS011;39100;53.480;6.158;2023-08-06T06:00:51;0.80;;;0.70;;
52868;SDS011;39100;53.480;6.158;2023-08-06T06:03:17;1.40;;;0.77;;
52868;SDS011;39100;53.480;6.158;2023-08-06T06:05:42;1.30;;;0.80;;
52868;SDS011;39100;53.480;6.158;2023-08-06T06:08:08;0.80;;;0.80;;
52868;SDS011;39100;53.480;6.158;2023-08-06T06:10:33;0.95;;;0.82;;
52868;SDS011;39100;53.480;6.158;2023-08-06T06:13:00;0.77;;;0.77;;
52868;SDS011;39100;53.480;6.158;2023-08-06T06:15:25;1.42;;;0.70;;
52868;SDS011;39100;53.480;6.158;2023-08-06T06:17:51;0.60;;;0.60;;
52868;SDS011;39100;53.480;6.158;2023-08-06T06:20:16;1.13;;;0.57;;
52868;SDS011;39100;53.480;6.158;2023-08-06T06:22:42;1.95;;;0.73;;
52868;SDS011;39100;53.480;6.158;2023-08-06T06:25:08;0.90;;;0.50;;
52868;SDS011;39100;53.480;6.158;2023-08-06T06:27:34;2.28;;;0.80;;
52868;SDS011;39100;53.480;6.158;2023-08-06T06:30:00;0.80;;;0.43;;
52868;SDS011;39100;53.480;6.158;2023-08-06T06:32:26;0.95;;;0.57;;
52868;SDS011;39100;53.480;6.158;2023-08-06T06:34:51;1.05;;;0.52;;
52868;SDS011;39100;53.480;6.158;2023-08-06T06:37:17;0.40;;;0.40;;
52868;SDS011;39100;53.480;6.158;2023-08-06T06:39:42;0.88;;;0.55;;
52868;SDS011;39100;53.480;6.158;2023-08-06T06:42:09;0.60;;;0.60;;
52868;SDS011;39100;53.480;6.158;2023-08-06T06:44:35;0.60;;;0.60;;
52868;SDS011;39100;53.480;6.158;2023-08-06T06:47:00;0.32;;;0.30;;
52868;SDS011;39100;53.480;6.158;2023-08-06T06:49:26;1.05;;;0.47;;
52868;SDS011;39100;53.480;6.158;2023-08-06T06:51:51;0.57;;;0.45;;
52868;SDS011;39100;53.480;6.158;2023-08-06T06:54:17;0.95;;;0.38;;
52868;SDS011;39100;53.480;6.158;2023-08-06T06:56:42;0.40;;;0.40;;
52868;SDS011;39100;53.480;6.158;2023-08-06T06:59:08;0.30;;;0.20;;
52868;SDS011;39100;53.480;6.158;2023-08-06T07:01:33;0.40;;;0.30;;
52868;SDS011;39100;53.480;6.158;2023-08-06T07:03:59;0.47;;;0.25;;
52868;SDS011;39100;53.480;6.158;2023-08-06T07:06:29;0.40;;;0.20;;
52868;SDS011;39100;53.480;6.158;2023-08-06T07:08:55;0.77;;;0.30;;
52868;SDS011;39100;53.480;6.158;2023-08-06T07:11:21;0.30;;;0.22;;
52868;SDS011;39100;53.480;6.158;2023-08-06T07:13:46;5.47;;;2.22;;
52868;SDS011;39100;53.480;6.158;2023-08-06T07:16:12;2.83;;;1.70;;
52868;SDS011;39100;53.480;6.158;2023-08-06T07:18:37;2.30;;;1.33;;
52868;SDS011;39100;53.480;6.158;2023-08-06T07:21:04;1.77;;;1.02;;
52868;SDS011;39100;53.480;6.158;2023-08-06T07:23:30;2.45;;;1.30;;
52868;SDS011;39100;53.480;6.158;2023-08-06T07:25:56;1.13;;;0.80;;
52868;SDS011;39100;53.480;6.158;2023-08-06T07:28:21;1.58;;;0.70;;
52868;SDS011;39100;53.480;6.158;2023-08-06T07:30:47;1.40;;;0.55;;
52868;SDS011;39100;53.480;6.158;2023-08-06T07:33:13;1.10;;;0.70;;
52868;SDS011;39100;53.480;6.158;2023-08-06T07:35:38;1.10;;;0.40;;
52868;SDS011;39100;53.480;6.158;2023-08-06T07:38:04;0.80;;;0.40;;
52868;SDS011;39100;53.480;6.158;2023-08-06T07:40:30;0.65;;;0.50;;
52868;SDS011;39100;53.480;6.158;2023-08-06T07:42:56;1.70;;;0.30;;
52868;SDS011;39100;53.480;6.158;2023-08-06T07:45:21;0.73;;;0.43;;
52868;SDS011;39100;53.480;6.158;2023-08-06T07:47:47;0.40;;;0.17;;
52868;SDS011;39100;53.480;6.158;2023-08-06T07:50:13;0.95;;;0.25;;
52868;SDS011;39100;53.480;6.158;2023-08-06T07:52:39;0.35;;;0.30;;
52868;SDS011;39100;53.480;6.158;2023-08-06T07:55:04;0.63;;;0.20;;
52868;SDS011;39100;53.480;6.158;2023-08-06T07:57:30;0.65;;;0.45;;
52868;SDS011;39100;53.480;6.158;2023-08-06T07:59:56;0.30;;;0.30;;
52868;SDS011;39100;53.480;6.158;2023-08-06T08:02:22;0.57;;;0.43;;
52868;SDS011;39100;53.480;6.158;2023-08-06T08:04:47;0.63;;;0.28;;
52868;SDS011;39100;53.480;6.158;2023-08-06T08:07:13;0.30;;;0.30;;
52868;SDS011;39100;53.480;6.158;2023-08-06T08:09:39;0.35;;;0.35;;
52868;SDS011;39100;53.480;6.158;2023-08-06T08:12:05;0.88;;;0.32;;
52868;SDS011;39100;53.480;6.158;2023-08-06T08:14:30;0.60;;;0.40;;
52868;SDS011;39100;53.480;6.158;2023-08-06T08:17:04;1.50;;;0.75;;
52868;SDS011;39100;53.480;6.158;2023-08-06T08:19:30;0.52;;;0.50;;
52868;SDS011;39100;53.480;6.158;2023-08-06T08:21:57;2.13;;;0.60;;
52868;SDS011;39100;53.480;6.158;2023-08-06T08:24:23;1.42;;;0.68;;
52868;SDS011;39100;53.480;6.158;2023-08-06T08:26:52;0.98;;;0.68;;
52868;SDS011;39100;53.480;6.158;2023-08-06T08:29:19;0.50;;;0.30;;
52868;SDS011;39100;53.480;6.158;2023-08-06T08:31:46;2.72;;;0.80;;
52868;SDS011;39100;53.480;6.158;2023-08-06T08:34:14;0.52;;;0.20;;
52868;SDS011;39100;53.480;6.158;2023-08-06T08:36:40;0.57;;;0.45;;
52868;SDS011;39100;53.480;6.158;2023-08-06T08:39:05;1.67;;;0.40;;
52868;SDS011;39100;53.480;6.158;2023-08-06T08:41:31;1.25;;;0.45;;
52868;SDS011;39100;53.480;6.158;2023-08-06T08:43:58;0.57;;;0.40;;
52868;SDS011;39100;53.480;6.158;2023-08-06T08:46:34;1.77;;;0.60;;
52868;SDS011;39100;53.480;6.158;2023-08-06T08:49:02;1.15;;;0.57;;
52868;SDS011;39100;53.480;6.158;2023-08-06T08:51:28;0.70;;;0.50;;
52868;SDS011;39100;53.480;6.158;2023-08-06T08:53:55;0.68;;;0.40;;
52868;SDS011;39100;53.480;6.158;2023-08-06T08:56:23;1.90;;;0.73;;
52868;SDS011;39100;53.480;6.158;2023-08-06T08:58:50;0.75;;;0.60;;
52868;SDS011;39100;53.480;6.158;2023-08-06T09:01:18;1.20;;;0.65;;
52868;SDS011;39100;53.480;6.158;2023-08-06T09:03:45;0.60;;;0.60;;
52868;SDS011;39100;53.480;6.158;2023-08-06T09:06:12;1.30;;;0.50;;
52868;SDS011;39100;53.480;6.158;2023-08-06T09:08:43;1.05;;;0.43;;
52868;SDS011;39100;53.480;6.158;2023-08-06T09:11:16;0.80;;;0.55;;
52868;SDS011;39100;53.480;6.158;2023-08-06T09:13:42;0.38;;;0.30;;
52868;SDS011;39100;53.480;6.158;2023-08-06T09:16:07;0.45;;;0.32;;
52868;SDS011;39100;53.480;6.158;2023-08-06T09:18:33;0.63;;;0.30;;
52868;SDS011;39100;53.480;6.158;2023-08-06T09:20:58;1.00;;;0.50;;
52868;SDS011;39100;53.480;6.158;2023-08-06T09:23:31;1.00;;;0.40;;
52868;SDS011;39100;53.480;6.158;2023-08-06T09:25:58;0.50;;;0.40;;
52868;SDS011;39100;53.480;6.158;2023-08-06T09:28:24;1.30;;;0.65;;
52868;SDS011;39100;53.480;6.158;2023-08-06T09:30:50;1.70;;;0.40;;
52868;SDS011;39100;53.480;6.158;2023-08-06T09:33:19;1.02;;;0.70;;
52868;SDS011;39100;53.480;6.158;2023-08-06T09:35:47;0.60;;;0.45;;
52868;SDS011;39100;53.480;6.158;2023-08-06T09:38:13;0.73;;;0.32;;
52868;SDS011;39100;53.480;6.158;2023-08-06T09:40:39;0.30;;;0.30;;
52868;SDS011;39100;53.480;6.158;2023-08-06T09:43:05;0.60;;;0.38;;
52868;SDS011;39100;53.480;6.158;2023-08-06T09:45:35;0.90;;;0.43;;
52868;SDS011;39100;53.480;6.158;2023-08-06T09:48:05;0.68;;;0.30;;
52868;SDS011;39100;53.480;6.158;2023-08-06T09:50:32;0.60;;;0.52;;
52868;SDS011;39100;53.480;6.158;2023-08-06T09:53:03;0.70;;;0.43;;
52868;SDS011;39100;53.480;6.158;2023-08-06T09:55:33;0.93;;;0.47;;
52868;SDS011;39100;53.480;6.158;2023-08-06T09:57:59;0.77;;;0.38;;
52868;SDS011;39100;53.480;6.158;2023-08-06T10:00:26;0.80;;;0.60;;
52868;SDS011;39100;53.480;6.158;2023-08-06T10:02:53;1.40;;;0.40;;
52868;SDS011;39100;53.480;6.158;2023-08-06T10:05:21;0.40;;;0.30;;
52868;SDS011;39100;53.480;6.158;2023-08-06T10:07:48;0.40;;;0.40;;
52868;SDS011;39100;53.480;6.158;2023-08-06T10:10:15;0.73;;;0.60;;
52868;SDS011;39100;53.480;6.158;2023-08-06T10:12:45;0.73;;;0.55;;
52868;SDS011;39100;53.480;6.158;2023-08-06T10:15:14;0.38;;;0.38;;
52868;SDS011;39100;53.480;6.158;2023-08-06T10:17:42;0.73;;;0.32;;
52868;SDS011;39100;53.480;6.158;2023-08-06T10:20:10;0.77;;;0.60;;
52868;SDS011;39100;53.480;6.158;2023-08-06T10:22:37;0.30;;;0.30;;
52868;SDS011;39100;53.480;6.158;2023-08-06T10:25:08;0.30;;;0.30;;
52868;SDS011;39100;53.480;6.158;2023-08-06T10:27:35;0.30;;;0.30;;
52868;SDS011;39100;53.480;6.158;2023-08-06T10:30:25;1.48;;;0.93;;
52868;SDS011;39100;53.480;6.158;2023-08-06T10:32:52;0.40;;;0.38;;
52868;SDS011;39100;53.480;6.158;2023-08-06T10:38:02;0.40;;;0.30;;
52868;SDS011;39100;53.480;6.158;2023-08-06T10:40:29;0.40;;;0.20;;
52868;SDS011;39100;53.480;6.158;2023-08-06T10:42:58;0.30;;;0.30;;
52868;SDS011;39100;53.480;6.158;2023-08-06T10:45:24;0.63;;;0.30;;
52868;SDS011;39100;53.480;6.158;2023-08-06T10:47:53;0.30;;;0.20;;
52868;SDS011;39100;53.480;6.158;2023-08-06T10:50:21;0.30;;;0.20;;
52868;SDS011;39100;53.480;6.158;2023-08-06T10:52:47;0.93;;;0.50;;
52868;SDS011;39100;53.480;6.158;2023-08-06T10:55:13;0.30;;;0.30;;
52868;SDS011;39100;53.480;6.158;2023-08-06T10:57:39;0.35;;;0.25;;
52868;SDS011;39100;53.480;6.158;2023-08-06T11:00:05;0.52;;;0.30;;
52868;SDS011;39100;53.480;6.158;2023-08-06T11:02:33;0.30;;;0.30;;
52868;SDS011;39100;53.480;6.158;2023-08-06T11:05:06;0.40;;;0.30;;
52868;SDS011;39100;53.480;6.158;2023-08-06T11:07:33;0.40;;;0.40;;
52868;SDS011;39100;53.480;6.158;2023-08-06T11:10:03;0.55;;;0.30;;
52868;SDS011;39100;53.480;6.158;2023-08-06T11:12:33;1.75;;;0.30;;
52868;SDS011;39100;53.480;6.158;2023-08-06T11:14:59;1.15;;;0.57;;
52868;SDS011;39100;53.480;6.158;2023-08-06T11:17:27;1.00;;;0.35;;
52868;SDS011;39100;53.480;6.158;2023-08-06T11:19:53;0.30;;;0.30;;
52868;SDS011;39100;53.480;6.158;2023-08-06T11:22:20;0.70;;;0.30;;
52868;SDS011;39100;53.480;6.158;2023-08-06T11:24:46;0.90;;;0.70;;
52868;SDS011;39100;53.480;6.158;2023-08-06T11:27:13;3.15;;;0.40;;
52868;SDS011;39100;53.480;6.158;2023-08-06T11:29:40;0.75;;;0.60;;
52868;SDS011;39100;53.480;6.158;2023-08-06T11:32:06;1.13;;;0.60;;
52868;SDS011;39100;53.480;6.158;2023-08-06T11:34:33;0.40;;;0.35;;
52868;SDS011;39100;53.480;6.158;2023-08-06T11:36:59;0.77;;;0.50;;
52868;SDS011;39100;53.480;6.158;2023-08-06T11:39:24;0.47;;;0.40;;
52868;SDS011;39100;53.480;6.158;2023-08-06T11:41:50;0.45;;;0.30;;
52868;SDS011;39100;53.480;6.158;2023-08-06T11:44:18;0.70;;;0.70;;
52868;SDS011;39100;53.480;6.158;2023-08-06T11:46:51;1.10;;;0.30;;
52868;SDS011;39100;53.480;6.158;2023-08-06T11:49:17;0.32;;;0.30;;
52868;SDS011;39100;53.480;6.158;2023-08-06T11:51:46;0.40;;;0.30;;
52868;SDS011;39100;53.480;6.158;2023-08-06T11:54:14;0.73;;;0.38;;
52868;SDS011;39100;53.480;6.158;2023-08-06T11:56:40;0.88;;;0.55;;
52868;SDS011;39100;53.480;6.158;2023-08-06T11:59:06;0.82;;;0.40;;
52868;SDS011;39100;53.480;6.158;2023-08-06T12:01:33;0.40;;;0.38;;
52868;SDS011;39100;53.480;6.158;2023-08-06T12:03:59;0.45;;;0.40;;
52868;SDS011;39100;53.480;6.158;2023-08-06T12:06:28;0.50;;;0.43;;
52868;SDS011;39100;53.480;6.158;2023-08-06T12:08:53;0.40;;;0.35;;
52868;SDS011;39100;53.480;6.158;2023-08-06T12:11:20;0.38;;;0.30;;
52868;SDS011;39100;53.480;6.158;2023-08-06T12:13:50;0.93;;;0.60;;
52868;SDS011;39100;53.480;6.158;2023-08-06T12:16:16;0.85;;;0.40;;
52868;SDS011;39100;53.480;6.158;2023-08-06T12:18:43;0.45;;;0.43;;
52868;SDS011;39100;53.480;6.158;2023-08-06T12:21:09;0.60;;;0.32;;
52868;SDS011;39100;53.480;6.158;2023-08-06T12:23:35;0.43;;;0.30;;
52868;SDS011;39100;53.480;6.158;2023-08-06T12:26:01;0.45;;;0.40;;
52868;SDS011;39100;53.480;6.158;2023-08-06T12:28:26;0.40;;;0.40;;
52868;SDS011;39100;53.480;6.158;2023-08-06T12:30:52;0.65;;;0.50;;
52868;SDS011;39100;53.480;6.158;2023-08-06T12:33:20;0.63;;;0.35;;
52868;SDS011;39100;53.480;6.158;2023-08-06T12:35:45;0.25;;;0.20;;
52868;SDS011;39100;53.480;6.158;2023-08-06T12:38:11;0.50;;;0.50;;
52868;SDS011;39100;53.480;6.158;2023-08-06T12:40:38;0.40;;;0.30;;
52868;SDS011;39100;53.480;6.158;2023-08-06T12:43:04;0.25;;;0.25;;
52868;SDS011;39100;53.480;6.158;2023-08-06T12:45:29;0.40;;;0.32;;
52868;SDS011;39100;53.480;6.158;2023-08-06T12:47:55;0.20;;;0.20;;
52868;SDS011;39100;53.480;6.158;2023-08-06T12:50:20;0.50;;;0.30;;
52868;SDS011;39100;53.480;6.158;2023-08-06T12:52:46;0.45;;;0.30;;
52868;SDS011;39100;53.480;6.158;2023-08-06T12:55:12;0.20;;;0.13;;
52868;SDS011;39100;53.480;6.158;2023-08-06T12:57:37;1.00;;;0.50;;
52868;SDS011;39100;53.480;6.158;2023-08-06T13:00:03;0.32;;;0.20;;
52868;SDS011;39100;53.480;6.158;2023-08-06T13:02:29;0.68;;;0.25;;
52868;SDS011;39100;53.480;6.158;2023-08-06T13:04:55;0.40;;;0.35;;
52868;SDS011;39100;53.480;6.158;2023-08-06T13:07:21;0.40;;;0.40;;
52868;SDS011;39100;53.480;6.158;2023-08-06T13:09:46;0.40;;;0.30;;
52868;SDS011;39100;53.480;6.158;2023-08-06T13:12:12;0.50;;;0.47;;
52868;SDS011;39100;53.480;6.158;2023-08-06T13:14:37;0.40;;;0.40;;
52868;SDS011;39100;53.480;6.158;2023-08-06T13:17:03;1.25;;;0.82;;
52868;SDS011;39100;53.480;6.158;2023-08-06T13:19:31;0.55;;;0.30;;
52868;SDS011;39100;53.480;6.158;2023-08-06T13:22:03;0.40;;;0.40;;
52868;SDS011;39100;53.480;6.158;2023-08-06T13:24:30;0.50;;;0.50;;
52868;SDS011;39100;53.480;6.158;2023-08-06T13:26:56;0.68;;;0.43;;
52868;SDS011;39100;53.480;6.158;2023-08-06T13:29:22;0.40;;;0.40;;
52868;SDS011;39100;53.480;6.158;2023-08-06T13:31:47;0.52;;;0.47;;
52868;SDS011;39100;53.480;6.158;2023-08-06T13:34:13;0.98;;;0.43;;
52868;SDS011;39100;53.480;6.158;2023-08-06T13:36:39;2.08;;;0.70;;
52868;SDS011;39100;53.480;6.158;2023-08-06T13:39:04;0.60;;;0.50;;
52868;SDS011;39100;53.480;6.158;2023-08-06T13:41:30;0.50;;;0.40;;
52868;SDS011;39100;53.480;6.158;2023-08-06T13:43:56;0.70;;;0.52;;
52868;SDS011;39100;53.480;6.158;2023-08-06T13:46:21;0.38;;;0.38;;
52868;SDS011;39100;53.480;6.158;2023-08-06T13:48:47;1.48;;;0.50;;
52868;SDS011;39100;53.480;6.158;2023-08-06T13:51:16;0.57;;;0.55;;
52868;SDS011;39100;53.480;6.158;2023-08-06T13:53:41;0.40;;;0.40;;
52868;SDS011;39100;53.480;6.158;2023-08-06T13:56:10;1.25;;;0.55;;
52868;SDS011;39100;53.480;6.158;2023-08-06T13:58:36;0.82;;;0.68;;
52868;SDS011;39100;53.480;6.158;2023-08-06T14:01:02;0.50;;;0.45;;
52868;SDS011;39100;53.480;6.158;2023-08-06T14:03:28;0.55;;;0.40;;
52868;SDS011;39100;53.480;6.158;2023-08-06T14:05:53;0.57;;;0.35;;
52868;SDS011;39100;53.480;6.158;2023-08-06T14:08:22;0.52;;;0.40;;
52868;SDS011;39100;53.480;6.158;2023-08-06T14:10:49;0.50;;;0.50;;
52868;SDS011;39100;53.480;6.158;2023-08-06T14:13:15;0.40;;;0.40;;
52868;SDS011;39100;53.480;6.158;2023-08-06T14:15:41;0.40;;;0.35;;
52868;SDS011;39100;53.480;6.158;2023-08-06T14:18:07;0.20;;;0.20;;
52868;SDS011;39100;53.480;6.158;2023-08-06T14:20:35;0.60;;;0.50;;
52868;SDS011;39100;53.480;6.158;2023-08-06T14:23:01;0.40;;;0.28;;
52868;SDS011;39100;53.480;6.158;2023-08-06T14:25:27;0.32;;;0.30;;
52868;SDS011;39100;53.480;6.158;2023-08-06T14:27:53;0.80;;;0.50;;
52868;SDS011;39100;53.480;6.158;2023-08-06T14:30:18;1.30;;;0.60;;
52868;SDS011;39100;53.480;6.158;2023-08-06T14:32:44;0.50;;;0.30;;
52868;SDS011;39100;53.480;6.158;2023-08-06T14:35:10;0.52;;;0.45;;
52868;SDS011;39100;53.480;6.158;2023-08-06T14:37:35;0.63;;;0.60;;
52868;SDS011;39100;53.480;6.158;2023-08-06T14:40:01;0.47;;;0.47;;
52868;SDS011;39100;53.480;6.158;2023-08-06T14:42:27;1.25;;;0.60;;
52868;SDS011;39100;53.480;6.158;2023-08-06T14:44:53;0.47;;;0.30;;
52868;SDS011;39100;53.480;6.158;2023-08-06T14:47:18;0.50;;;0.20;;
52868;SDS011;39100;53.480;6.158;2023-08-06T14:49:44;0.98;;;0.57;;
52868;SDS011;39100;53.480;6.158;2023-08-06T14:52:09;1.13;;;0.40;;